createdAt,value
2022-11-05T00:00:41.964Z,94381.63
2022-11-05T00:02:01.771Z,94381.63
2022-11-05T00:03:22.781Z,94377.50
2022-11-05T00:04:42.980Z,94373.41
2022-11-05T00:06:12.908Z,94364.81
2022-11-05T00:07:38.383Z,94363.66
2022-11-05T00:09:00.191Z,94377.50
2022-11-05T00:10:17.232Z,94374.19
2022-11-05T00:11:18.884Z,94381.81
2022-11-05T00:12:38.858Z,94373.97
2022-11-05T00:13:59.038Z,94370.41
2022-11-05T00:15:18.805Z,94369.69
2022-11-05T00:16:38.674Z,94379.41
2022-11-05T00:17:40.552Z,94378.66
2022-11-05T00:18:42.080Z,94370.25
2022-11-05T00:19:43.642Z,94374.53
2022-11-05T00:20:45.168Z,94368.19
2022-11-05T00:22:05.206Z,94368.19
2022-11-05T00:23:25.486Z,94373.22
2022-11-05T00:24:45.423Z,94363.31
2022-11-05T00:25:58.044Z,94364.31
2022-11-05T00:26:59.564Z,94353.44
2022-11-05T00:28:03.303Z,94348.97
2022-11-05T00:29:04.866Z,94353.44
2022-11-05T00:30:07.651Z,94361.84
2022-11-05T00:31:12.035Z,94361.09
2022-11-05T00:32:13.558Z,94354.72
2022-11-05T00:33:15.167Z,94338.66
2022-11-05T00:34:16.676Z,94342.03
2022-11-05T00:35:20.180Z,94359.03
2022-11-05T00:36:21.695Z,94362.59
2022-11-05T00:37:23.197Z,94361.84
2022-11-05T00:38:25.070Z,94368.94
2022-11-05T00:39:26.578Z,94360.69
2022-11-05T00:40:28.217Z,94357.31
2022-11-05T00:41:29.731Z,94353.78
2022-11-05T00:42:49.700Z,94356.59
2022-11-05T00:44:09.444Z,94369.28
2022-11-05T00:45:10.997Z,94357.31
2022-11-05T00:46:12.589Z,94353.94
2022-11-05T00:47:32.430Z,94353.19
2022-11-05T00:48:52.288Z,94345.38
2022-11-05T00:49:53.832Z,94343.84
2022-11-05T00:50:55.372Z,94341.06
2022-11-05T00:52:15.071Z,94336.97
2022-11-05T00:53:16.780Z,94341.25
2022-11-05T00:54:18.285Z,94339.75
2022-11-05T00:55:19.835Z,94348.16
2022-11-05T00:56:21.371Z,94342.38
2022-11-05T00:57:22.869Z,94338.09
2022-11-05T00:58:24.457Z,94329.69
2022-11-05T00:59:25.966Z,94340.91
2022-11-05T01:00:30.635Z,94345.78
2022-11-05T01:01:32.265Z,94336.78
2022-11-05T01:02:33.988Z,94335.28
2022-11-05T01:03:37.971Z,94335.28
2022-11-05T01:04:39.484Z,94327.44
2022-11-05T01:05:48.786Z,94332.16
2022-11-05T01:06:50.293Z,94328.22
2022-11-05T01:07:53.076Z,94327.63
2022-11-05T01:08:55.984Z,94327.44
2022-11-05T01:09:57.565Z,94330.81
2022-11-05T01:10:59.637Z,94317.94
2022-11-05T01:12:01.152Z,94319.63
2022-11-05T01:13:02.706Z,94325.97
2022-11-05T01:14:16.141Z,94329.34
2022-11-05T01:15:19.356Z,94329.69
2022-11-05T01:16:21.110Z,94325.41
2022-11-05T01:17:22.724Z,94325.22
2022-11-05T01:18:25.403Z,94324.47
2022-11-05T01:19:27.019Z,94325.06
2022-11-05T01:20:28.538Z,94324.47
2022-11-05T01:21:30.112Z,94324.47
2022-11-05T01:22:31.627Z,94322.41
2022-11-05T01:23:33.125Z,94313.25
2022-11-05T01:24:34.681Z,94309.88
2022-11-05T01:25:36.304Z,94312.53
2022-11-05T01:26:37.837Z,94314.00
2022-11-05T01:27:39.496Z,94306.91
2022-11-05T01:28:41.108Z,94306.91
2022-11-05T01:29:42.873Z,94308.41
2022-11-05T01:30:44.378Z,94308.41
2022-11-05T01:31:46.219Z,94306.91
2022-11-05T01:32:47.825Z,94316.22
2022-11-05T01:33:50.072Z,94309.88
2022-11-05T01:34:51.576Z,94307.66
2022-11-05T01:35:53.481Z,94302.78
2022-11-05T01:36:54.997Z,94294.97
2022-11-05T01:37:56.509Z,94304.28
2022-11-05T01:38:58.025Z,94299.84
2022-11-05T01:39:59.897Z,94299.84
2022-11-05T01:41:01.411Z,94285.81
2022-11-05T01:42:03.009Z,94287.84
2022-11-05T01:43:14.706Z,94282.69
2022-11-05T01:44:47.935Z,94285.31
2022-11-05T01:45:58.652Z,94277.81
2022-11-05T01:47:00.214Z,94281.50
2022-11-05T01:48:08.184Z,94275.75
2022-11-05T01:49:18.225Z,94277.06
2022-11-05T01:50:30.421Z,94270.16
2022-11-05T01:51:32.435Z,94272.53
2022-11-05T01:52:35.723Z,94280.03
2022-11-05T01:53:48.238Z,94276.31
2022-11-05T01:54:50.278Z,94278.56
2022-11-05T01:55:59.736Z,94274.81
2022-11-05T01:57:06.180Z,94281.91
2022-11-05T01:58:11.348Z,94276.88
2022-11-05T01:59:25.049Z,94274.50
2022-11-05T02:00:27.953Z,94275.75
2022-11-05T02:01:29.761Z,94272.03
2022-11-05T02:02:31.506Z,94271.28
2022-11-05T02:03:33.290Z,94276.88
2022-11-05T02:04:42.464Z,94267.56
2022-11-05T02:05:45.111Z,94267.00
2022-11-05T02:06:46.786Z,94268.31
2022-11-05T02:07:49.436Z,94266.81
2022-11-05T02:09:06.531Z,94268.16
2022-11-05T02:10:17.995Z,94270.94
2022-11-05T02:11:20.462Z,94269.06
2022-11-05T02:12:23.633Z,94273.34
2022-11-05T02:13:25.177Z,94276.72
2022-11-05T02:14:26.720Z,94282.31
2022-11-05T02:15:50.239Z,94287.59
2022-11-05T02:17:03.675Z,94276.38
2022-11-05T02:18:20.805Z,94267.81
2022-11-05T02:19:56.300Z,94283.31
2022-11-05T02:21:42.477Z,94276.22
2022-11-05T02:22:53.120Z,94268.88
2022-11-05T02:24:21.750Z,94273.41
2022-11-05T02:25:45.025Z,94272.28
2022-11-05T02:27:08.247Z,94270.63
2022-11-05T02:28:31.288Z,94267.81
2022-11-05T02:29:57.585Z,94264.66
2022-11-05T02:31:16.861Z,94270.09
2022-11-05T02:32:18.326Z,94266.34
2022-11-05T02:33:37.971Z,94265.22
2022-11-05T02:35:04.314Z,94269.75
2022-11-05T02:36:27.640Z,94260.06
2022-11-05T02:37:49.544Z,94267.13
2022-11-05T02:39:09.587Z,94260.19
2022-11-05T02:40:20.712Z,94263.34
2022-11-05T02:41:54.073Z,94265.81
2022-11-05T02:43:02.094Z,94257.41
2022-11-05T02:44:26.699Z,94267.13
2022-11-05T02:45:49.274Z,94264.47
2022-11-05T02:46:53.739Z,94264.47
2022-11-05T02:48:14.112Z,94257.81
2022-11-05T02:49:44.505Z,94261.53
2022-11-05T02:51:01.265Z,94268.78
2022-11-05T02:52:15.511Z,94267.88
2022-11-05T02:53:33.844Z,94274.22
2022-11-05T02:54:51.478Z,94265.81
2022-11-05T02:56:21.005Z,94266.38
2022-11-05T02:57:22.653Z,94257.75
2022-11-05T02:58:24.176Z,94264.47
2022-11-05T02:59:25.745Z,94266.53
2022-11-05T03:00:49.456Z,94272.41
2022-11-05T03:01:53.011Z,94268.47
2022-11-05T03:02:55.043Z,94273.28
2022-11-05T03:04:00.883Z,94267.53
2022-11-05T03:05:03.168Z,94266.38
2022-11-05T03:06:35.439Z,94267.53
2022-11-05T03:07:59.135Z,94269.75
2022-11-05T03:09:22.530Z,94276.84
2022-11-05T03:10:43.932Z,94276.28
2022-11-05T03:12:17.880Z,94275.34
2022-11-05T03:13:30.696Z,94279.06
2022-11-05T03:15:06.693Z,94280.97
2022-11-05T03:16:31.153Z,94273.88
2022-11-05T03:18:02.985Z,94270.88
2022-11-05T03:19:24.298Z,94275.34
2022-11-05T03:20:45.659Z,94267.53
2022-11-05T03:22:16.148Z,94271.06
2022-11-05T03:23:56.046Z,94268.03
2022-11-05T03:25:14.750Z,94276.84
2022-11-05T03:26:42.843Z,94267.13
2022-11-05T03:27:48.256Z,94273.63
2022-11-05T03:28:56.914Z,94274.63
2022-11-05T03:30:01.916Z,94267.69
2022-11-05T03:31:05.993Z,94275.69
2022-11-05T03:32:09.794Z,94289.56
2022-11-05T03:33:20.405Z,94289.38
2022-11-05T03:34:29.372Z,94291.03
2022-11-05T03:35:37.346Z,94292.16
2022-11-05T03:36:47.165Z,94299.28
2022-11-05T03:37:53.192Z,94292.91
2022-11-05T03:38:57.278Z,94299.44
2022-11-05T03:40:01.861Z,94297.94
2022-11-05T03:41:11.332Z,94293.66
2022-11-05T03:42:16.483Z,94303.56
2022-11-05T03:43:20.557Z,94300.75
2022-11-05T03:44:36.781Z,94300.41
2022-11-05T03:45:48.136Z,94307.50
2022-11-05T03:46:52.256Z,94307.84
2022-11-05T03:47:58.040Z,94314.59
2022-11-05T03:49:03.979Z,94306.91
2022-11-05T03:50:18.819Z,94311.03
2022-11-05T03:51:29.304Z,94306.19
2022-11-05T03:52:40.364Z,94313.09
2022-11-05T03:54:02.887Z,94314.44
2022-11-05T03:55:05.600Z,94311.22
2022-11-05T03:56:15.635Z,94316.09
2022-11-05T03:57:29.128Z,94306.19
2022-11-05T03:58:31.503Z,94316.25
2022-11-05T03:59:41.231Z,94315.91
2022-11-05T04:00:43.082Z,94316.84
2022-11-05T04:01:44.822Z,94320.19
2022-11-05T04:02:46.516Z,94320.19
2022-11-05T04:03:48.155Z,94319.03
2022-11-05T04:04:49.843Z,94320.53
2022-11-05T04:06:13.885Z,94312.72
2022-11-05T04:07:34.045Z,94322.44
2022-11-05T04:08:53.930Z,94324.50
2022-11-05T04:10:14.119Z,94316.09
2022-11-05T04:11:33.977Z,94317.56
2022-11-05T04:12:53.801Z,94314.59
2022-11-05T04:13:55.299Z,94315.91
2022-11-05T04:14:57.353Z,94310.31
2022-11-05T04:16:17.125Z,94306.03
2022-11-05T04:17:18.638Z,94309.38
2022-11-05T04:18:20.136Z,94310.13
2022-11-05T04:19:41.648Z,94306.03
2022-11-05T04:21:01.500Z,94314.97
2022-11-05T04:22:22.029Z,94312.91
2022-11-05T04:23:41.814Z,94302.28
2022-11-05T04:24:43.361Z,94312.75
2022-11-05T04:25:44.953Z,94312.75
2022-11-05T04:26:47.472Z,94317.63
2022-11-05T04:27:49.330Z,94318.38
2022-11-05T04:29:10.313Z,94314.25
2022-11-05T04:30:18.981Z,94313.91
2022-11-05T04:31:20.526Z,94325.84
2022-11-05T04:32:22.038Z,94326.59
2022-11-05T04:33:23.550Z,94340.59
2022-11-05T04:34:25.077Z,94328.66
2022-11-05T04:35:28.904Z,94335.00
2022-11-05T04:36:30.672Z,94336.50
2022-11-05T04:37:32.305Z,94337.78
2022-11-05T04:38:33.811Z,94340.59
2022-11-05T04:39:35.324Z,94343.41
2022-11-05T04:40:38.121Z,94344.91
2022-11-05T04:41:39.686Z,94339.31
2022-11-05T04:42:41.213Z,94345.63
2022-11-05T04:43:43.232Z,94347.72
2022-11-05T04:44:44.739Z,94346.38
2022-11-05T04:45:46.507Z,94339.47
2022-11-05T04:46:48.041Z,94342.25
2022-11-05T04:47:49.571Z,94336.66
2022-11-05T04:48:51.150Z,94339.47
2022-11-05T04:49:52.663Z,94342.25
2022-11-05T04:50:54.382Z,94340.78
2022-11-05T04:51:55.904Z,94347.88
2022-11-05T04:52:58.127Z,94344.91
2022-11-05T04:54:00.335Z,94343.41
2022-11-05T04:55:01.997Z,94338.56
2022-11-05T04:56:18.183Z,94336.16
2022-11-05T04:57:19.755Z,94335.19
2022-11-05T04:58:21.285Z,94337.78
2022-11-05T04:59:22.834Z,94322.31
2022-11-05T05:00:24.527Z,94337.78
2022-11-05T05:01:26.252Z,94330.56
2022-11-05T05:02:28.592Z,94332.03
2022-11-05T05:03:30.113Z,94330.72
2022-11-05T05:04:31.651Z,94327.91
2022-11-05T05:05:33.153Z,94333.50
2022-11-05T05:06:34.633Z,94329.56
2022-11-05T05:07:36.273Z,94332.38
2022-11-05T05:08:38.165Z,94338.56
2022-11-05T05:09:39.721Z,94336.50
2022-11-05T05:10:41.241Z,94341.91
2022-11-05T05:11:42.764Z,94338.94
2022-11-05T05:12:44.301Z,94346.03
2022-11-05T05:13:46.598Z,94340.44
2022-11-05T05:14:49.245Z,94344.56
2022-11-05T05:15:50.772Z,94344.72
2022-11-05T05:16:52.317Z,94345.28
2022-11-05T05:17:53.828Z,94346.03
2022-11-05T05:18:55.389Z,94346.03
2022-11-05T05:20:15.668Z,94346.03
2022-11-05T05:21:37.481Z,94351.63
2022-11-05T05:22:39.001Z,94357.25
2022-11-05T05:23:40.686Z,94354.44
2022-11-05T05:24:42.209Z,94357.25
2022-11-05T05:25:43.715Z,94358.72
2022-11-05T05:26:48.394Z,94368.44
2022-11-05T05:27:49.957Z,94372.56
2022-11-05T05:28:55.741Z,94368.44
2022-11-05T05:29:58.893Z,94368.44
2022-11-05T05:31:01.463Z,94369.19
2022-11-05T05:32:02.973Z,94367.13
2022-11-05T05:33:04.909Z,94373.47
2022-11-05T05:34:07.849Z,94377.59
2022-11-05T05:35:09.793Z,94381.13
2022-11-05T05:36:11.676Z,94383.38
2022-11-05T05:37:13.465Z,94381.13
2022-11-05T05:38:14.995Z,94388.22
2022-11-05T05:39:16.700Z,94391.22
2022-11-05T05:40:18.291Z,94384.88
2022-11-05T05:41:20.540Z,94395.16
2022-11-05T05:42:22.943Z,94388.41
2022-11-05T05:43:24.550Z,94391.22
2022-11-05T05:44:26.089Z,94393.28
2022-11-05T05:45:27.680Z,94386.94
2022-11-05T05:46:29.185Z,94396.81
2022-11-05T05:47:30.695Z,94396.81
2022-11-05T05:48:32.389Z,94397.75
2022-11-05T05:49:33.987Z,94399.97
2022-11-05T05:50:35.888Z,94395.69
2022-11-05T05:51:37.528Z,94398.66
2022-11-05T05:52:39.081Z,94395.84
2022-11-05T05:53:40.696Z,94400.16
2022-11-05T05:54:43.066Z,94397.34
2022-11-05T05:55:44.745Z,94392.50
2022-11-05T05:56:46.273Z,94393.63
2022-11-05T05:57:47.849Z,94395.84
2022-11-05T05:58:49.437Z,94393.03
2022-11-05T05:59:50.975Z,94398.84
2022-11-05T06:00:53.438Z,94391.91
2022-11-05T06:01:55.086Z,94397.34
2022-11-05T06:02:56.785Z,94403.13
2022-11-05T06:03:58.304Z,94390.44
2022-11-05T06:04:59.834Z,94396.78
2022-11-05T06:06:06.137Z,94394.56
2022-11-05T06:07:07.725Z,94389.84
2022-11-05T06:08:09.297Z,94387.03
2022-11-05T06:09:10.960Z,94387.03
2022-11-05T06:10:12.554Z,94391.16
2022-11-05T06:11:14.308Z,94394.13
2022-11-05T06:12:15.825Z,94392.66
2022-11-05T06:13:17.456Z,94400.31
2022-11-05T06:14:18.947Z,94390.44
2022-11-05T06:15:20.476Z,94394.56
2022-11-05T06:16:21.993Z,94388.94
2022-11-05T06:17:23.533Z,94393.97
2022-11-05T06:18:25.062Z,94395.44
2022-11-05T06:19:26.589Z,94392.66
2022-11-05T06:20:28.110Z,94393.38
2022-11-05T06:21:29.630Z,94396.03
2022-11-05T06:22:31.153Z,94396.03
2022-11-05T06:23:34.195Z,94392.66
2022-11-05T06:24:35.688Z,94393.38
2022-11-05T06:25:41.003Z,94396.38
2022-11-05T06:26:43.340Z,94396.38
2022-11-05T06:27:44.850Z,94395.06
2022-11-05T06:28:46.590Z,94395.25
2022-11-05T06:29:48.167Z,94391.13
2022-11-05T06:30:52.589Z,94393.56
2022-11-05T06:31:54.094Z,94384.78
2022-11-05T06:32:55.611Z,94389.44
2022-11-05T06:33:57.167Z,94388.88
2022-11-05T06:34:58.712Z,94387.56
2022-11-05T06:36:02.120Z,94397.88
2022-11-05T06:37:03.657Z,94388.88
2022-11-05T06:38:05.173Z,94396.72
2022-11-05T06:39:15.634Z,94389.44
2022-11-05T06:40:17.270Z,94384.19
2022-11-05T06:41:18.773Z,94391.13
2022-11-05T06:42:20.313Z,94396.00
2022-11-05T06:43:21.836Z,94390.38
2022-11-05T06:44:23.349Z,94386.84
2022-11-05T06:45:24.883Z,94390.38
2022-11-05T06:46:26.438Z,94387.56
2022-11-05T06:47:27.991Z,94385.53
2022-11-05T06:48:29.959Z,94387.00
2022-11-05T06:49:31.475Z,94390.53
2022-11-05T06:50:34.182Z,94379.16
2022-11-05T06:51:35.702Z,94374.47
2022-11-05T06:52:41.033Z,94380.06
2022-11-05T06:53:42.983Z,94371.66
2022-11-05T06:54:44.809Z,94373.91
2022-11-05T06:55:47.958Z,94376.13
2022-11-05T06:56:49.469Z,94373.16
2022-11-05T06:57:51.064Z,94368.31
2022-11-05T06:58:52.713Z,94377.47
2022-11-05T06:59:59.980Z,94373.91
2022-11-05T07:01:08.092Z,94373.16
2022-11-05T07:02:13.553Z,94374.81
2022-11-05T07:03:15.456Z,94369.38
2022-11-05T07:04:17.118Z,94360.97
2022-11-05T07:05:18.660Z,94358.19
2022-11-05T07:06:20.312Z,94358.91
2022-11-05T07:07:21.815Z,94358.19
2022-11-05T07:08:24.307Z,94359.66
2022-11-05T07:09:25.858Z,94370.88
2022-11-05T07:10:27.608Z,94369.72
2022-11-05T07:11:29.112Z,94367.50
2022-11-05T07:12:30.600Z,94365.44
2022-11-05T07:13:32.278Z,94354.25
2022-11-05T07:14:33.784Z,94353.66
2022-11-05T07:15:35.849Z,94348.78
2022-11-05T07:16:37.388Z,94357.19
2022-11-05T07:17:40.562Z,94368.25
2022-11-05T07:18:42.150Z,94358.53
2022-11-05T07:19:43.646Z,94361.50
2022-11-05T07:20:45.193Z,94365.59
2022-11-05T07:21:48.723Z,94361.50
2022-11-05T07:22:50.288Z,94362.25
2022-11-05T07:23:51.936Z,94364.47
2022-11-05T07:24:53.437Z,94364.47
2022-11-05T07:25:54.998Z,94365.78
2022-11-05T07:26:56.536Z,94363.88
2022-11-05T07:27:58.243Z,94356.97
2022-11-05T07:28:59.737Z,94357.72
2022-11-05T07:30:01.253Z,94363.31
2022-11-05T07:31:02.800Z,94368.94
2022-11-05T07:32:04.582Z,94361.84
2022-11-05T07:33:06.125Z,94359.94
2022-11-05T07:34:07.699Z,94356.59
2022-11-05T07:35:09.884Z,94356.00
2022-11-05T07:36:11.473Z,94353.94
2022-11-05T07:37:13.383Z,94351.88
2022-11-05T07:38:14.970Z,94351.31
2022-11-05T07:39:16.758Z,94351.31
2022-11-05T07:40:21.595Z,94352.78
2022-11-05T07:41:23.120Z,94351.31
2022-11-05T07:42:24.680Z,94355.00
2022-11-05T07:43:26.192Z,94352.78
2022-11-05T07:44:27.724Z,94347.19
2022-11-05T07:45:30.908Z,94334.50
2022-11-05T07:46:32.479Z,94338.59
2022-11-05T07:47:37.408Z,94337.13
2022-11-05T07:48:38.992Z,94347.19
2022-11-05T07:49:40.492Z,94332.59
2022-11-05T07:50:42.003Z,94346.03
2022-11-05T07:51:43.697Z,94349.59
2022-11-05T07:52:46.140Z,94338.97
2022-11-05T07:53:48.455Z,94340.44
2022-11-05T07:54:50.030Z,94341.19
2022-11-05T07:55:52.618Z,94336.50
2022-11-05T07:56:54.139Z,94337.78
2022-11-05T07:57:55.701Z,94334.97
2022-11-05T07:58:57.216Z,94344.13
2022-11-05T07:59:58.704Z,94332.91
2022-11-05T08:01:00.253Z,94341.50
2022-11-05T08:02:01.995Z,94328.06
2022-11-05T08:03:14.044Z,94334.97
2022-11-05T08:04:16.026Z,94332.53
2022-11-05T08:05:17.545Z,94331.63
2022-11-05T08:06:19.082Z,94320.22
2022-11-05T08:07:20.623Z,94324.50
2022-11-05T08:08:22.122Z,94319.47
2022-11-05T08:09:23.740Z,94328.06
2022-11-05T08:10:26.100Z,94323.63
2022-11-05T08:11:27.643Z,94326.97
2022-11-05T08:12:29.484Z,94326.25
2022-11-05T08:13:31.160Z,94323.63
2022-11-05T08:14:32.665Z,94327.75
2022-11-05T08:15:35.296Z,94326.25
2022-11-05T08:16:36.820Z,94337.44
2022-11-05T08:17:38.345Z,94326.97
2022-11-05T08:18:40.110Z,94327.75
2022-11-05T08:19:41.682Z,94331.84
2022-11-05T08:20:44.835Z,94326.25
2022-11-05T08:21:46.353Z,94324.16
2022-11-05T08:22:47.872Z,94323.63
2022-11-05T08:23:49.377Z,94329.03
2022-11-05T08:24:50.948Z,94323.44
2022-11-05T08:25:53.025Z,94324.94
2022-11-05T08:26:54.605Z,94328.47
2022-11-05T08:27:58.626Z,94331.28
2022-11-05T08:29:00.405Z,94330.69
2022-11-05T08:30:02.693Z,94324.34
2022-11-05T08:31:04.312Z,94321.72
2022-11-05T08:32:05.925Z,94328.81
2022-11-05T08:33:13.148Z,94322.88
2022-11-05T08:34:14.914Z,94323.22
2022-11-05T08:35:16.513Z,94316.28
2022-11-05T08:36:18.077Z,94323.94
2022-11-05T08:37:19.576Z,94326.00
2022-11-05T08:38:21.291Z,94326.56
2022-11-05T08:39:22.809Z,94321.72
2022-11-05T08:40:24.558Z,94318.34
2022-11-05T08:41:26.096Z,94323.78
2022-11-05T08:42:27.685Z,94323.94
2022-11-05T08:43:29.267Z,94326.75
2022-11-05T08:44:30.834Z,94329.38
2022-11-05T08:45:33.407Z,94326.56
2022-11-05T08:46:41.283Z,94327.91
2022-11-05T08:47:43.250Z,94326.56
2022-11-05T08:48:45.017Z,94322.88
2022-11-05T08:49:46.539Z,94329.22
2022-11-05T08:50:49.407Z,94326.25
2022-11-05T08:51:50.990Z,94322.13
2022-11-05T08:52:52.590Z,94317.81
2022-11-05T08:53:54.164Z,94320.06
2022-11-05T08:54:55.690Z,94315.03
2022-11-05T08:56:00.610Z,94331.28
2022-11-05T08:57:02.209Z,94313.72
2022-11-05T08:58:10.725Z,94324.75
2022-11-05T08:59:12.255Z,94322.13
2022-11-05T09:00:15.087Z,94315.03
2022-11-05T09:01:16.818Z,94315.75
2022-11-05T09:02:18.732Z,94315.19
2022-11-05T09:03:20.632Z,94310.91
2022-11-05T09:04:22.555Z,94310.91
2022-11-05T09:05:24.101Z,94312.41
2022-11-05T09:06:25.907Z,94315.19
2022-11-05T09:07:27.457Z,94307.53
2022-11-05T09:08:29.104Z,94305.31
2022-11-05T09:09:30.604Z,94310.16
2022-11-05T09:10:32.251Z,94311.66
2022-11-05T09:12:05.299Z,94306.78
2022-11-05T09:12:55.439Z,94313.13
2022-11-05T09:13:56.992Z,94308.28
2022-11-05T09:14:58.513Z,94308.28
2022-11-05T09:16:00.246Z,94313.88
2022-11-05T09:17:01.792Z,94315.19
2022-11-05T09:18:05.633Z,94309.59
2022-11-05T09:19:07.220Z,94314.63
2022-11-05T09:20:11.200Z,94313.13
2022-11-05T09:21:12.696Z,94316.69
2022-11-05T09:22:14.574Z,94310.50
2022-11-05T09:23:16.968Z,94308.59
2022-11-05T09:24:18.557Z,94311.25
2022-11-05T09:25:20.477Z,94312.72
2022-11-05T09:26:22.057Z,94307.13
2022-11-05T09:27:23.674Z,94309.94
2022-11-05T09:28:25.558Z,94305.66
2022-11-05T09:29:27.132Z,94307.13
2022-11-05T09:30:28.640Z,94300.78
2022-11-05T09:31:30.129Z,94295.00
2022-11-05T09:32:32.575Z,94299.84
2022-11-05T09:33:35.141Z,94298.53
2022-11-05T09:34:36.781Z,94298.53
2022-11-05T09:35:39.935Z,94294.44
2022-11-05T09:36:41.425Z,94293.25
2022-11-05T09:37:46.022Z,94291.78
2022-11-05T09:38:47.548Z,94296.84
2022-11-05T09:39:49.133Z,94295.91
2022-11-05T09:41:01.190Z,94305.66
2022-11-05T09:42:07.336Z,94300.19
2022-11-05T09:43:17.016Z,94297.97
2022-11-05T09:44:22.288Z,94301.66
2022-11-05T09:45:27.015Z,94294.75
2022-11-05T09:46:49.451Z,94298.88
2022-11-05T09:47:58.772Z,94295.50
2022-11-05T09:49:07.397Z,94290.63
2022-11-05T09:50:19.737Z,94289.16
2022-11-05T09:51:24.064Z,94287.97
2022-11-05T09:52:28.605Z,94293.59
2022-11-05T09:53:30.162Z,94289.50
2022-11-05T09:54:33.158Z,94295.09
2022-11-05T09:55:40.421Z,94303.34
2022-11-05T09:56:42.300Z,94301.44
2022-11-05T09:57:56.918Z,94301.84
2022-11-05T09:59:06.339Z,94299.19
2022-11-05T10:00:16.495Z,94293.59
2022-11-05T10:01:24.903Z,94303.34
2022-11-05T10:02:37.668Z,94293.59
2022-11-05T10:03:46.008Z,94283.88
2022-11-05T10:04:51.511Z,94281.97
2022-11-05T10:05:57.286Z,94288.91
2022-11-05T10:07:01.879Z,94288.31
2022-11-05T10:08:10.014Z,94285.34
2022-11-05T10:09:32.858Z,94283.88
2022-11-05T10:10:40.789Z,94288.31
2022-11-05T10:11:51.357Z,94279.91
2022-11-05T10:12:57.132Z,94283.84
2022-11-05T10:14:08.599Z,94281.41
2022-11-05T10:15:16.805Z,94281.22
2022-11-05T10:16:24.548Z,94275.22
2022-11-05T10:17:28.128Z,94273.91
2022-11-05T10:18:34.452Z,94276.53
2022-11-05T10:19:47.862Z,94278.44
2022-11-05T10:20:49.549Z,94272.63
2022-11-05T10:22:12.254Z,94273.34
2022-11-05T10:23:15.627Z,94271.44
2022-11-05T10:24:19.606Z,94277.06
2022-11-05T10:25:22.413Z,94279.28
2022-11-05T10:26:29.031Z,94279.28
2022-11-05T10:27:35.446Z,94277.81
2022-11-05T10:28:37.240Z,94275.91
2022-11-05T10:29:38.906Z,94275.91
2022-11-05T10:30:40.454Z,94275.34
2022-11-05T10:31:43.274Z,94275.91
2022-11-05T10:32:47.323Z,94274.75
2022-11-05T10:34:00.649Z,94266.94
2022-11-05T10:35:04.753Z,94270.63
2022-11-05T10:36:11.006Z,94272.69
2022-11-05T10:37:12.873Z,94272.13
2022-11-05T10:38:15.303Z,94275.50
2022-11-05T10:39:19.070Z,94276.81
2022-11-05T10:40:38.941Z,94270.28
2022-11-05T10:41:55.338Z,94274.59
2022-11-05T10:43:01.100Z,94269.88
2022-11-05T10:44:40.093Z,94264.69
2022-11-05T10:46:00.452Z,94262.94
2022-11-05T10:47:34.200Z,94264.44
2022-11-05T10:48:45.520Z,94276.16
2022-11-05T10:50:01.606Z,94271.69
2022-11-05T10:51:03.174Z,94261.56
2022-11-05T10:52:24.226Z,94256.38
2022-11-05T10:53:34.873Z,94258.00
2022-11-05T10:54:36.497Z,94261.16
2022-11-05T10:55:42.173Z,94255.94
2022-11-05T10:56:44.243Z,94254.78
2022-11-05T10:57:48.568Z,94261.16
2022-11-05T10:58:56.636Z,94262.63
2022-11-05T11:00:19.128Z,94259.66
2022-11-05T11:01:21.748Z,94252.88
2022-11-05T11:02:28.254Z,94252.88
2022-11-05T11:03:35.694Z,94255.53
2022-11-05T11:04:38.255Z,94264.09
2022-11-05T11:05:40.420Z,94254.34
2022-11-05T11:06:49.752Z,94249.94
2022-11-05T11:08:16.384Z,94242.81
2022-11-05T11:09:31.077Z,94233.41
2022-11-05T11:10:39.673Z,94232.81
2022-11-05T11:11:42.777Z,94236.38
2022-11-05T11:12:44.504Z,94239.19
2022-11-05T11:13:58.219Z,94239.03
2022-11-05T11:15:01.545Z,94238.44
2022-11-05T11:16:16.077Z,94245.78
2022-11-05T11:17:26.849Z,94238.84
2022-11-05T11:18:40.090Z,94243.13
2022-11-05T11:19:42.142Z,94244.63
2022-11-05T11:20:45.600Z,94248.75
2022-11-05T11:22:07.458Z,94234.91
2022-11-05T11:23:16.376Z,94234.91
2022-11-05T11:24:26.065Z,94236.78
2022-11-05T11:25:37.880Z,94237.53
2022-11-05T11:26:40.654Z,94235.63
2022-11-05T11:27:42.205Z,94240.66
2022-11-05T11:28:51.470Z,94240.50
2022-11-05T11:30:01.829Z,94231.91
2022-11-05T11:31:17.378Z,94237.09
2022-11-05T11:32:21.572Z,94235.97
2022-11-05T11:33:27.666Z,94233.00
2022-11-05T11:34:31.172Z,94237.84
2022-11-05T11:35:36.571Z,94230.19
2022-11-05T11:36:47.768Z,94241.25
2022-11-05T11:37:52.093Z,94237.44
2022-11-05T11:39:01.104Z,94236.53
2022-11-05T11:40:29.339Z,94229.44
2022-11-05T11:41:38.461Z,94232.41
2022-11-05T11:42:44.153Z,94232.59
2022-11-05T11:43:46.197Z,94225.47
2022-11-05T11:44:49.276Z,94232.59
2022-11-05T11:45:53.789Z,94235.22
2022-11-05T11:46:58.464Z,94234.31
2022-11-05T11:48:04.440Z,94231.50
2022-11-05T11:49:07.133Z,94238.19
2022-11-05T11:50:31.146Z,94235.22
2022-11-05T11:51:40.571Z,94230.09
2022-11-05T11:52:42.191Z,94233.66
2022-11-05T11:53:43.916Z,94225.97
2022-11-05T11:54:45.613Z,94225.97
2022-11-05T11:56:04.500Z,94229.19
2022-11-05T11:57:27.342Z,94218.69
2022-11-05T11:58:51.358Z,94214.56
2022-11-05T12:00:08.354Z,94222.66
2022-11-05T12:01:23.274Z,94219.22
2022-11-05T12:02:39.967Z,94219.94
2022-11-05T12:03:46.328Z,94221.69
2022-11-05T12:05:02.078Z,94227.63
2022-11-05T12:06:09.199Z,94224.81
2022-11-05T12:07:19.617Z,94223.03
2022-11-05T12:08:30.424Z,94228.63
2022-11-05T12:10:02.652Z,94221.38
2022-11-05T12:11:38.929Z,94226.81
2022-11-05T12:13:00.540Z,94222.28
2022-11-05T12:14:35.800Z,94215.25
2022-11-05T12:16:16.146Z,94214.69
2022-11-05T12:17:26.732Z,94215.75
2022-11-05T12:18:34.196Z,94213.22
2022-11-05T12:19:38.733Z,94209.66
2022-11-05T12:20:43.243Z,94209.66
2022-11-05T12:22:13.885Z,94217.19
2022-11-05T12:23:41.163Z,94212.44
2022-11-05T12:24:51.971Z,94204.94
2022-11-05T12:25:58.895Z,94204.94
2022-11-05T12:27:25.213Z,94210.41
2022-11-05T12:29:18.036Z,94205.38
2022-11-05T12:30:21.227Z,94211.47
2022-11-05T12:31:37.084Z,94216.91
2022-11-05T12:32:44.719Z,94212.94
2022-11-05T12:34:12.170Z,94216.34
2022-11-05T12:35:23.715Z,94211.63
2022-11-05T12:36:55.432Z,94211.28
2022-11-05T12:38:13.995Z,94212.63
2022-11-05T12:39:43.948Z,94211.16
2022-11-05T12:40:51.492Z,94210.56
2022-11-05T12:41:57.538Z,94209.97
2022-11-05T12:43:10.504Z,94207.16
2022-11-05T12:44:16.540Z,94209.66
2022-11-05T12:45:21.093Z,94205.53
2022-11-05T12:46:42.398Z,94212.31
2022-11-05T12:47:59.008Z,94208.34
2022-11-05T12:49:31.069Z,94215.59
2022-11-05T12:50:55.373Z,94209.81
2022-11-05T12:51:59.789Z,94214.44
2022-11-05T12:53:16.230Z,94212.63
2022-11-05T12:54:42.385Z,94210.16
2022-11-05T12:55:49.458Z,94201.72
2022-11-05T12:56:55.620Z,94210.16
2022-11-05T12:58:05.857Z,94207.34
2022-11-05T12:59:36.746Z,94205.13
2022-11-05T13:00:42.661Z,94200.72
2022-11-05T13:01:49.068Z,94206.94
2022-11-05T13:02:53.686Z,94209.13
2022-11-05T13:04:08.703Z,94203.22
2022-11-05T13:05:18.350Z,94211.47
2022-11-05T13:06:29.920Z,94210.31
2022-11-05T13:07:39.456Z,94206.19
2022-11-05T13:08:51.769Z,94203.38